sensor_id;sensor_type;location;lat;lon;timestamp;pressure;altitude;pressure_sealevel;temperature;humidity
70103;BME280;57470;50.034;15.256;2023-04-07T00:00:51;99615.59;;;3.85;77.11
70103;BME280;57470;50.034;15.256;2023-04-07T00:03:16;99626.00;;;3.88;76.31
70103;BME280;57470;50.034;15.256;2023-04-07T00:05:41;99626.19;;;3.84;76.92
70103;BME280;57470;50.034;15.256;2023-04-07T00:08:07;99616.84;;;3.98;77.58
70103;BME280;57470;50.034;15.256;2023-04-07T00:10:32;99621.34;;;3.95;77.18
70103;BME280;57470;50.034;15.256;2023-04-07T00:12:58;99610.63;;;3.56;80.39
70103;BME280;57470;50.034;15.256;2023-04-07T00:15:24;99619.09;;;3.86;79.22
70103;BME280;57470;50.034;15.256;2023-04-07T00:17:49;99611.03;;;3.90;78.93
70103;BME280;57470;50.034;15.256;2023-04-07T00:20:15;99614.09;;;4.01;78.89
70103;BME280;57470;50.034;15.256;2023-04-07T00:22:40;99611.38;;;4.03;78.05
70103;BME280;57470;50.034;15.256;2023-04-07T00:25:06;99619.28;;;4.03;78.59
70103;BME280;57470;50.034;15.256;2023-04-07T00:27:31;99613.25;;;4.01;78.90
70103;BME280;57470;50.034;15.256;2023-04-07T00:29:57;99612.69;;;3.93;79.08
70103;BME280;57470;50.034;15.256;2023-04-07T00:32:22;99609.69;;;4.02;78.90
70103;BME280;57470;50.034;15.256;2023-04-07T00:34:47;99601.53;;;4.08;79.36
70103;BME280;57470;50.034;15.256;2023-04-07T00:37:13;99602.34;;;4.10;78.66
70103;BME280;57470;50.034;15.256;2023-04-07T00:39:38;99585.63;;;4.11;79.19
70103;BME280;57470;50.034;15.256;2023-04-07T00:42:04;99596.22;;;4.09;78.69
70103;BME280;57470;50.034;15.256;2023-04-07T00:44:31;99593.75;;;4.05;78.90
70103;BME280;57470;50.034;15.256;2023-04-07T00:46:57;99589.91;;;3.92;80.23
70103;BME280;57470;50.034;15.256;2023-04-07T00:49:24;99588.50;;;4.05;79.90
70103;BME280;57470;50.034;15.256;2023-04-07T00:51:49;99581.34;;;4.08;79.33
70103;BME280;57470;50.034;15.256;2023-04-07T00:54:16;99579.09;;;3.99;80.08
70103;BME280;57470;50.034;15.256;2023-04-07T00:56:42;99582.56;;;4.00;78.77
70103;BME280;57470;50.034;15.256;2023-04-07T00:59:07;99579.69;;;4.06;78.51
70103;BME280;57470;50.034;15.256;2023-04-07T01:01:39;99583.88;;;4.11;78.29
70103;BME280;57470;50.034;15.256;2023-04-07T01:04:34;99567.94;;;4.14;77.85
70103;BME280;57470;50.034;15.256;2023-04-07T01:07:05;99572.38;;;4.12;78.50
70103;BME280;57470;50.034;15.256;2023-04-07T01:09:53;99569.03;;;4.09;77.54
70103;BME280;57470;50.034;15.256;2023-04-07T01:12:52;99566.97;;;4.17;75.82
70103;BME280;57470;50.034;15.256;2023-04-07T01:15:20;99558.16;;;3.96;76.38
70103;BME280;57470;50.034;15.256;2023-04-07T01:17:51;99565.00;;;4.00;75.49
70103;BME280;57470;50.034;15.256;2023-04-07T01:20:20;99563.78;;;4.09;75.41
70103;BME280;57470;50.034;15.256;2023-04-07T01:22:53;99567.34;;;4.08;75.67
70103;BME280;57470;50.034;15.256;2023-04-07T01:30:26;99561.75;;;4.15;75.42
70103;BME280;57470;50.034;15.256;2023-04-07T01:32:53;99546.88;;;4.14;75.51
70103;BME280;57470;50.034;15.256;2023-04-07T01:35:21;99556.53;;;4.14;75.14
70103;BME280;57470;50.034;15.256;2023-04-07T01:37:48;99541.19;;;4.03;75.48
70103;BME280;57470;50.034;15.256;2023-04-07T01:40:15;99548.66;;;4.14;75.31
70103;BME280;57470;50.034;15.256;2023-04-07T01:42:41;99550.38;;;4.15;75.92
70103;BME280;57470;50.034;15.256;2023-04-07T01:45:08;99547.84;;;4.12;75.58
70103;BME280;57470;50.034;15.256;2023-04-07T01:47:35;99541.81;;;4.10;75.88
70103;BME280;57470;50.034;15.256;2023-04-07T01:50:02;99543.44;;;4.12;75.35
70103;BME280;57470;50.034;15.256;2023-04-07T01:52:35;99548.78;;;4.11;76.20
70103;BME280;57470;50.034;15.256;2023-04-07T01:55:02;99545.00;;;3.96;76.74
70103;BME280;57470;50.034;15.256;2023-04-07T01:57:28;99540.66;;;3.95;76.78
70103;BME280;57470;50.034;15.256;2023-04-07T01:59:53;99541.56;;;3.72;77.29
70103;BME280;57470;50.034;15.256;2023-04-07T02:02:20;99544.22;;;3.72;77.36
70103;BME280;57470;50.034;15.256;2023-04-07T02:05:04;99546.41;;;3.61;77.54
70103;BME280;57470;50.034;15.256;2023-04-07T02:07:51;99551.75;;;3.58;77.53
70103;BME280;57470;50.034;15.256;2023-04-07T02:10:21;99550.34;;;3.50;78.06
70103;BME280;57470;50.034;15.256;2023-04-07T02:12:49;99553.06;;;3.70;77.77
70103;BME280;57470;50.034;15.256;2023-04-07T02:15:18;99547.31;;;3.60;77.82
70103;BME280;57470;50.034;15.256;2023-04-07T02:17:48;99549.53;;;3.71;77.57
70103;BME280;57470;50.034;15.256;2023-04-07T02:20:17;99541.88;;;3.87;77.40
70103;BME280;57470;50.034;15.256;2023-04-07T02:22:45;99548.63;;;3.72;76.99
70103;BME280;57470;50.034;15.256;2023-04-07T02:25:26;99538.75;;;3.77;76.83
70103;BME280;57470;50.034;15.256;2023-04-07T02:27:54;99542.38;;;3.74;76.93
70103;BME280;57470;50.034;15.256;2023-04-07T02:30:22;99549.97;;;3.82;75.97
70103;BME280;57470;50.034;15.256;2023-04-07T02:32:49;99549.06;;;3.83;75.72
70103;BME280;57470;50.034;15.256;2023-04-07T02:35:17;99542.41;;;3.95;75.45
70103;BME280;57470;50.034;15.256;2023-04-07T02:37:45;99536.97;;;3.99;75.50
70103;BME280;57470;50.034;15.256;2023-04-07T02:40:12;99533.66;;;3.94;76.62
70103;BME280;57470;50.034;15.256;2023-04-07T02:42:39;99529.16;;;3.98;76.57
70103;BME280;57470;50.034;15.256;2023-04-07T02:45:08;99522.97;;;3.99;76.80
70103;BME280;57470;50.034;15.256;2023-04-07T02:47:36;99521.19;;;3.99;76.39
70103;BME280;57470;50.034;15.256;2023-04-07T02:50:04;99524.63;;;4.01;76.23
70103;BME280;57470;50.034;15.256;2023-04-07T02:52:31;99527.25;;;4.01;76.45
70103;BME280;57470;50.034;15.256;2023-04-07T02:54:57;99518.75;;;3.51;79.20
70103;BME280;57470;50.034;15.256;2023-04-07T02:57:22;99518.22;;;3.20;81.71
70103;BME280;57470;50.034;15.256;2023-04-07T02:59:48;99521.88;;;3.61;79.61
70103;BME280;57470;50.034;15.256;2023-04-07T03:02:13;99523.16;;;3.72;79.19
70103;BME280;57470;50.034;15.256;2023-04-07T03:04:39;99522.00;;;3.80;78.88
70103;BME280;57470;50.034;15.256;2023-04-07T03:07:04;99525.31;;;3.85;78.98
70103;BME280;57470;50.034;15.256;2023-04-07T03:09:30;99523.28;;;3.91;78.76
70103;BME280;57470;50.034;15.256;2023-04-07T03:11:55;99528.88;;;4.04;78.21
70103;BME280;57470;50.034;15.256;2023-04-07T03:14:20;99524.53;;;4.03;78.68
70103;BME280;57470;50.034;15.256;2023-04-07T03:16:46;99521.91;;;4.03;78.29
70103;BME280;57470;50.034;15.256;2023-04-07T03:19:11;99517.88;;;3.94;79.10
70103;BME280;57470;50.034;15.256;2023-04-07T03:21:37;99526.84;;;3.90;79.83
70103;BME280;57470;50.034;15.256;2023-04-07T03:24:04;99526.72;;;3.93;79.83
70103;BME280;57470;50.034;15.256;2023-04-07T03:26:30;99518.03;;;3.91;79.48
70103;BME280;57470;50.034;15.256;2023-04-07T03:28:55;99518.88;;;3.92;79.52
70103;BME280;57470;50.034;15.256;2023-04-07T03:31:21;99523.47;;;3.65;80.88
70103;BME280;57470;50.034;15.256;2023-04-07T03:33:48;99520.34;;;3.55;81.48
70103;BME280;57470;50.034;15.256;2023-04-07T03:36:13;99519.91;;;3.44;81.24
70103;BME280;57470;50.034;15.256;2023-04-07T03:38:39;99514.59;;;3.46;81.19
70103;BME280;57470;50.034;15.256;2023-04-07T03:41:04;99514.53;;;3.47;80.98
70103;BME280;57470;50.034;15.256;2023-04-07T03:43:29;99514.84;;;3.61;80.62
70103;BME280;57470;50.034;15.256;2023-04-07T03:45:55;99516.25;;;3.70;79.43
70103;BME280;57470;50.034;15.256;2023-04-07T03:48:20;99515.06;;;3.77;78.85
70103;BME280;57470;50.034;15.256;2023-04-07T03:50:46;99511.19;;;3.65;78.89
70103;BME280;57470;50.034;15.256;2023-04-07T03:53:11;99514.41;;;3.72;79.17
70103;BME280;57470;50.034;15.256;2023-04-07T03:55:41;99511.03;;;3.68;78.97
70103;BME280;57470;50.034;15.256;2023-04-07T03:58:06;99512.25;;;3.60;78.80
70103;BME280;57470;50.034;15.256;2023-04-07T04:00:32;99513.47;;;3.51;78.37
70103;BME280;57470;50.034;15.256;2023-04-07T04:02:58;99513.44;;;3.53;78.36
70103;BME280;57470;50.034;15.256;2023-04-07T04:05:24;99503.88;;;3.50;78.28
70103;BME280;57470;50.034;15.256;2023-04-07T04:07:49;99502.34;;;3.45;78.53
70103;BME280;57470;50.034;15.256;2023-04-07T04:10:17;99510.91;;;3.50;78.05
70103;BME280;57470;50.034;15.256;2023-04-07T04:12:42;99500.84;;;3.39;78.58
70103;BME280;57470;50.034;15.256;2023-04-07T04:15:08;99500.03;;;3.37;78.56
70103;BME280;57470;50.034;15.256;2023-04-07T04:17:34;99505.25;;;3.38;78.68
70103;BME280;57470;50.034;15.256;2023-04-07T04:19:59;99504.50;;;3.35;78.34
70103;BME280;57470;50.034;15.256;2023-04-07T04:22:25;99502.97;;;3.29;79.00
70103;BME280;57470;50.034;15.256;2023-04-07T04:24:50;99504.50;;;3.35;78.30
70103;BME280;57470;50.034;15.256;2023-04-07T04:27:16;99499.47;;;3.29;78.32
70103;BME280;57470;50.034;15.256;2023-04-07T04:29:41;99498.56;;;3.30;78.17
70103;BME280;57470;50.034;15.256;2023-04-07T04:32:06;99503.53;;;3.37;77.87
70103;BME280;57470;50.034;15.256;2023-04-07T04:34:32;99500.09;;;3.35;78.13
70103;BME280;57470;50.034;15.256;2023-04-07T04:36:57;99501.59;;;3.41;78.01
70103;BME280;57470;50.034;15.256;2023-04-07T04:39:22;99506.22;;;3.36;77.70
70103;BME280;57470;50.034;15.256;2023-04-07T04:41:48;99493.22;;;3.31;78.20
70103;BME280;57470;50.034;15.256;2023-04-07T04:44:13;99490.38;;;3.37;77.94
70103;BME280;57470;50.034;15.256;2023-04-07T04:46:38;99497.16;;;3.43;77.88
70103;BME280;57470;50.034;15.256;2023-04-07T04:49:04;99493.31;;;3.30;78.83
70103;BME280;57470;50.034;15.256;2023-04-07T04:51:30;99493.06;;;3.36;78.43
70103;BME280;57470;50.034;15.256;2023-04-07T04:53:55;99490.50;;;3.34;78.73
70103;BME280;57470;50.034;15.256;2023-04-07T04:56:21;99492.94;;;3.39;77.99
70103;BME280;57470;50.034;15.256;2023-04-07T04:58:46;99501.50;;;3.44;77.95
70103;BME280;57470;50.034;15.256;2023-04-07T05:01:12;99492.16;;;3.37;78.97
70103;BME280;57470;50.034;15.256;2023-04-07T05:03:38;99499.19;;;3.36;79.26
70103;BME280;57470;50.034;15.256;2023-04-07T05:06:03;99500.63;;;3.44;79.97
70103;BME280;57470;50.034;15.256;2023-04-07T05:08:29;99498.69;;;3.27;79.51
70103;BME280;57470;50.034;15.256;2023-04-07T05:10:54;99500.28;;;3.31;78.86
70103;BME280;57470;50.034;15.256;2023-04-07T05:13:20;99501.34;;;3.25;78.79
70103;BME280;57470;50.034;15.256;2023-04-07T05:15:45;99498.25;;;3.59;78.66
70103;BME280;57470;50.034;15.256;2023-04-07T05:18:11;99496.13;;;3.47;79.31
70103;BME280;57470;50.034;15.256;2023-04-07T05:20:36;99494.94;;;3.76;78.64
70103;BME280;57470;50.034;15.256;2023-04-07T05:23:02;99494.50;;;3.87;79.17
70103;BME280;57470;50.034;15.256;2023-04-07T05:25:27;99491.50;;;3.96;78.06
70103;BME280;57470;50.034;15.256;2023-04-07T05:27:53;99487.47;;;4.09;77.93
70103;BME280;57470;50.034;15.256;2023-04-07T05:30:18;99494.38;;;4.11;78.10
70103;BME280;57470;50.034;15.256;2023-04-07T05:32:44;99492.13;;;4.23;76.74
70103;BME280;57470;50.034;15.256;2023-04-07T05:35:10;99483.91;;;4.30;76.90
70103;BME280;57470;50.034;15.256;2023-04-07T05:37:36;99484.34;;;4.40;76.56
70103;BME280;57470;50.034;15.256;2023-04-07T05:40:02;99480.00;;;4.39;76.54
70103;BME280;57470;50.034;15.256;2023-04-07T05:42:27;99482.00;;;4.54;76.20
70103;BME280;57470;50.034;15.256;2023-04-07T05:44:53;99485.16;;;4.62;75.75
70103;BME280;57470;50.034;15.256;2023-04-07T05:47:18;99486.34;;;4.55;75.77
70103;BME280;57470;50.034;15.256;2023-04-07T05:49:44;99488.00;;;4.37;74.14
70103;BME280;57470;50.034;15.256;2023-04-07T05:52:13;99493.78;;;4.45;74.54
70103;BME280;57470;50.034;15.256;2023-04-07T05:54:38;99492.34;;;4.38;74.22
70103;BME280;57470;50.034;15.256;2023-04-07T05:57:07;99496.94;;;4.53;74.09
70103;BME280;57470;50.034;15.256;2023-04-07T05:59:33;99492.88;;;4.46;73.54
70103;BME280;57470;50.034;15.256;2023-04-07T06:01:59;99489.16;;;4.50;73.02
70103;BME280;57470;50.034;15.256;2023-04-07T06:04:24;99483.44;;;4.41;72.53
70103;BME280;57470;50.034;15.256;2023-04-07T06:06:49;99491.69;;;4.53;72.86
70103;BME280;57470;50.034;15.256;2023-04-07T06:09:16;99490.53;;;4.59;72.47
70103;BME280;57470;50.034;15.256;2023-04-07T06:11:42;99477.59;;;4.55;72.32
70103;BME280;57470;50.034;15.256;2023-04-07T06:14:08;99484.00;;;4.68;72.17
70103;BME280;57470;50.034;15.256;2023-04-07T06:16:33;99478.72;;;4.88;72.34
70103;BME280;57470;50.034;15.256;2023-04-07T06:18:59;99480.81;;;4.61;72.70
70103;BME280;57470;50.034;15.256;2023-04-07T06:21:25;99478.91;;;4.83;71.52
70103;BME280;57470;50.034;15.256;2023-04-07T06:23:51;99477.91;;;4.86;71.71
70103;BME280;57470;50.034;15.256;2023-04-07T06:26:17;99478.84;;;4.85;71.31
70103;BME280;57470;50.034;15.256;2023-04-07T06:28:42;99477.34;;;4.79;71.77
70103;BME280;57470;50.034;15.256;2023-04-07T06:31:07;99463.94;;;4.84;72.11
70103;BME280;57470;50.034;15.256;2023-04-07T06:33:33;99468.97;;;4.90;71.58
70103;BME280;57470;50.034;15.256;2023-04-07T06:35:58;99469.03;;;4.88;71.88
70103;BME280;57470;50.034;15.256;2023-04-07T06:38:24;99467.25;;;5.08;71.68
70103;BME280;57470;50.034;15.256;2023-04-07T06:40:50;99463.97;;;5.03;71.42
70103;BME280;57470;50.034;15.256;2023-04-07T06:43:15;99470.88;;;4.86;70.80
70103;BME280;57470;50.034;15.256;2023-04-07T06:45:41;99470.81;;;5.07;70.50
70103;BME280;57470;50.034;15.256;2023-04-07T06:48:06;99465.06;;;5.17;70.32
70103;BME280;57470;50.034;15.256;2023-04-07T06:50:31;99471.50;;;5.29;70.44
70103;BME280;57470;50.034;15.256;2023-04-07T06:52:57;99470.53;;;5.32;71.00
70103;BME280;57470;50.034;15.256;2023-04-07T06:55:22;99478.94;;;5.40;70.36
70103;BME280;57470;50.034;15.256;2023-04-07T06:57:47;99479.66;;;5.43;70.82
70103;BME280;57470;50.034;15.256;2023-04-07T07:00:16;99474.66;;;5.37;69.54
70103;BME280;57470;50.034;15.256;2023-04-07T07:02:42;99484.88;;;5.26;70.07
70103;BME280;57470;50.034;15.256;2023-04-07T07:05:07;99478.66;;;5.27;69.42
70103;BME280;57470;50.034;15.256;2023-04-07T07:07:33;99480.34;;;5.47;69.41
70103;BME280;57470;50.034;15.256;2023-04-07T07:09:58;99480.88;;;5.36;69.87
70103;BME280;57470;50.034;15.256;2023-04-07T07:12:23;99491.13;;;5.42;69.51
70103;BME280;57470;50.034;15.256;2023-04-07T07:14:49;99487.31;;;5.66;69.39
70103;BME280;57470;50.034;15.256;2023-04-07T07:17:14;99495.88;;;5.90;68.79
70103;BME280;57470;50.034;15.256;2023-04-07T07:19:40;99491.72;;;5.66;68.65
70103;BME280;57470;50.034;15.256;2023-04-07T07:22:05;99491.69;;;5.49;69.21
70103;BME280;57470;50.034;15.256;2023-04-07T07:24:31;99494.13;;;5.53;70.11
70103;BME280;57470;50.034;15.256;2023-04-07T07:26:58;99498.28;;;5.76;69.83
70103;BME280;57470;50.034;15.256;2023-04-07T07:29:24;99496.41;;;5.78;69.30
70103;BME280;57470;50.034;15.256;2023-04-07T07:31:49;99499.53;;;5.86;69.61
70103;BME280;57470;50.034;15.256;2023-04-07T07:34:14;99501.16;;;5.72;69.38
70103;BME280;57470;50.034;15.256;2023-04-07T07:36:40;99498.19;;;5.96;68.71
70103;BME280;57470;50.034;15.256;2023-04-07T07:39:06;99501.06;;;6.09;68.41
70103;BME280;57470;50.034;15.256;2023-04-07T07:41:31;99499.19;;;5.94;68.65
70103;BME280;57470;50.034;15.256;2023-04-07T07:43:57;99499.44;;;5.89;68.50
70103;BME280;57470;50.034;15.256;2023-04-07T07:46:22;99508.31;;;6.06;68.30
70103;BME280;57470;50.034;15.256;2023-04-07T07:48:50;99511.22;;;5.99;68.49
70103;BME280;57470;50.034;15.256;2023-04-07T07:51:15;99502.28;;;5.66;69.78
70103;BME280;57470;50.034;15.256;2023-04-07T07:53:42;99507.06;;;6.13;68.59
70103;BME280;57470;50.034;15.256;2023-04-07T07:56:08;99507.50;;;6.03;69.56
70103;BME280;57470;50.034;15.256;2023-04-07T07:58:34;99510.63;;;6.46;68.64
70103;BME280;57470;50.034;15.256;2023-04-07T08:00:59;99505.59;;;6.24;67.26
70103;BME280;57470;50.034;15.256;2023-04-07T08:03:25;99506.44;;;6.42;66.75
70103;BME280;57470;50.034;15.256;2023-04-07T08:05:50;99505.59;;;6.42;66.94
70103;BME280;57470;50.034;15.256;2023-04-07T08:08:15;99504.44;;;6.30;66.31
70103;BME280;57470;50.034;15.256;2023-04-07T08:10:41;99516.47;;;6.53;66.98
70103;BME280;57470;50.034;15.256;2023-04-07T08:13:06;99512.28;;;6.82;66.93
70103;BME280;57470;50.034;15.256;2023-04-07T08:15:31;99509.13;;;7.08;66.91
70103;BME280;57470;50.034;15.256;2023-04-07T08:17:57;99508.41;;;6.71;65.99
70103;BME280;57470;50.034;15.256;2023-04-07T08:20:25;99503.13;;;6.71;66.11
70103;BME280;57470;50.034;15.256;2023-04-07T08:22:50;99504.78;;;6.74;65.48
70103;BME280;57470;50.034;15.256;2023-04-07T08:25:16;99505.47;;;6.77;66.17
70103;BME280;57470;50.034;15.256;2023-04-07T08:27:41;99508.34;;;6.73;66.39
70103;BME280;57470;50.034;15.256;2023-04-07T08:30:07;99507.88;;;7.15;65.86
70103;BME280;57470;50.034;15.256;2023-04-07T08:32:40;99511.97;;;7.21;64.60
70103;BME280;57470;50.034;15.256;2023-04-07T08:35:06;99507.13;;;7.44;64.61
70103;BME280;57470;50.034;15.256;2023-04-07T08:37:32;99505.09;;;7.49;64.17
70103;BME280;57470;50.034;15.256;2023-04-07T08:39:58;99503.22;;;7.51;64.90
70103;BME280;57470;50.034;15.256;2023-04-07T08:42:27;99500.22;;;7.58;63.89
70103;BME280;57470;50.034;15.256;2023-04-07T08:44:55;99501.84;;;7.44;64.07
70103;BME280;57470;50.034;15.256;2023-04-07T08:47:21;99498.69;;;7.38;63.70
70103;BME280;57470;50.034;15.256;2023-04-07T08:49:50;99504.38;;;7.62;63.44
70103;BME280;57470;50.034;15.256;2023-04-07T08:52:17;99510.81;;;7.58;63.82
70103;BME280;57470;50.034;15.256;2023-04-07T08:54:46;99506.97;;;7.63;63.08
70103;BME280;57470;50.034;15.256;2023-04-07T08:57:13;99503.81;;;7.41;62.24
70103;BME280;57470;50.034;15.256;2023-04-07T08:59:40;99504.41;;;7.30;63.40
70103;BME280;57470;50.034;15.256;2023-04-07T09:02:08;99501.25;;;7.39;62.76
70103;BME280;57470;50.034;15.256;2023-04-07T09:04:34;99487.84;;;7.42;63.31
70103;BME280;57470;50.034;15.256;2023-04-07T09:07:00;99488.59;;;7.44;62.10
70103;BME280;57470;50.034;15.256;2023-04-07T09:09:26;99496.88;;;7.38;63.29
70103;BME280;57470;50.034;15.256;2023-04-07T09:11:51;99500.66;;;7.66;63.63
70103;BME280;57470;50.034;15.256;2023-04-07T09:14:17;99505.78;;;7.69;62.60
70103;BME280;57470;50.034;15.256;2023-04-07T09:16:45;99494.41;;;7.67;63.76
70103;BME280;57470;50.034;15.256;2023-04-07T09:19:11;99500.13;;;7.75;62.44
70103;BME280;57470;50.034;15.256;2023-04-07T09:21:50;99495.91;;;8.02;63.11
70103;BME280;57470;50.034;15.256;2023-04-07T09:24:27;99498.47;;;7.88;61.33
70103;BME280;57470;50.034;15.256;2023-04-07T09:27:25;99487.38;;;7.19;62.50
70103;BME280;57470;50.034;15.256;2023-04-07T09:30:09;99490.31;;;7.61;61.33
70103;BME280;57470;50.034;15.256;2023-04-07T09:32:36;99490.72;;;7.85;62.16
70103;BME280;57470;50.034;15.256;2023-04-07T09:35:05;99490.22;;;7.78;61.44
70103;BME280;57470;50.034;15.256;2023-04-07T09:37:31;99486.38;;;7.84;60.99
70103;BME280;57470;50.034;15.256;2023-04-07T09:39:56;99487.47;;;7.96;60.42
70103;BME280;57470;50.034;15.256;2023-04-07T09:42:22;99482.84;;;7.99;61.29
70103;BME280;57470;50.034;15.256;2023-04-07T09:44:47;99479.88;;;8.19;60.84
70103;BME280;57470;50.034;15.256;2023-04-07T09:47:13;99483.56;;;7.87;61.17
70103;BME280;57470;50.034;15.256;2023-04-07T09:49:52;99485.06;;;7.91;61.21
70103;BME280;57470;50.034;15.256;2023-04-07T09:52:20;99481.00;;;7.70;60.99
70103;BME280;57470;50.034;15.256;2023-04-07T09:54:47;99477.41;;;7.86;61.48
70103;BME280;57470;50.034;15.256;2023-04-07T09:57:13;99483.47;;;8.18;61.60
70103;BME280;57470;50.034;15.256;2023-04-07T09:59:40;99471.13;;;8.03;61.75
70103;BME280;57470;50.034;15.256;2023-04-07T10:02:09;99470.41;;;8.15;61.11
70103;BME280;57470;50.034;15.256;2023-04-07T10:04:35;99471.72;;;8.38;60.47
70103;BME280;57470;50.034;15.256;2023-04-07T10:07:01;99468.63;;;8.60;60.76
70103;BME280;57470;50.034;15.256;2023-04-07T10:09:28;99465.16;;;9.02;60.06
70103;BME280;57470;50.034;15.256;2023-04-07T10:11:55;99467.25;;;8.97;60.41
70103;BME280;57470;50.034;15.256;2023-04-07T10:14:26;99463.25;;;9.04;60.05
70103;BME280;57470;50.034;15.256;2023-04-07T10:16:51;99469.13;;;8.81;59.63
70103;BME280;57470;50.034;15.256;2023-04-07T10:19:18;99465.25;;;8.86;59.64
70103;BME280;57470;50.034;15.256;2023-04-07T10:21:43;99457.66;;;8.80;60.11
70103;BME280;57470;50.034;15.256;2023-04-07T10:26:59;99453.31;;;8.79;59.60
70103;BME280;57470;50.034;15.256;2023-04-07T10:29:31;99461.09;;;9.11;59.84
70103;BME280;57470;50.034;15.256;2023-04-07T10:31:59;99457.78;;;8.93;59.49
70103;BME280;57470;50.034;15.256;2023-04-07T10:37:19;99458.97;;;9.30;58.64
70103;BME280;57470;50.034;15.256;2023-04-07T10:39:50;99460.88;;;9.14;59.23
70103;BME280;57470;50.034;15.256;2023-04-07T10:45:07;99458.44;;;9.11;59.49
70103;BME280;57470;50.034;15.256;2023-04-07T10:47:34;99455.78;;;8.96;60.05
70103;BME280;57470;50.034;15.256;2023-04-07T10:50:20;99461.38;;;8.92;60.21
70103;BME280;57470;50.034;15.256;2023-04-07T10:52:47;99463.31;;;9.31;59.94
70103;BME280;57470;50.034;15.256;2023-04-07T10:58:20;99456.84;;;8.94;61.89
70103;BME280;57470;50.034;15.256;2023-04-07T11:03:24;99463.44;;;9.29;59.61
70103;BME280;57470;50.034;15.256;2023-04-07T11:05:49;99454.84;;;9.12;59.78
70103;BME280;57470;50.034;15.256;2023-04-07T11:08:31;99459.94;;;9.29;60.19
70103;BME280;57470;50.034;15.256;2023-04-07T11:10:56;99452.56;;;8.63;63.19
70103;BME280;57470;50.034;15.256;2023-04-07T11:13:22;99456.50;;;9.27;62.68
70103;BME280;57470;50.034;15.256;2023-04-07T11:15:49;99448.88;;;9.49;62.61
70103;BME280;57470;50.034;15.256;2023-04-07T11:18:17;99452.38;;;9.76;61.01
70103;BME280;57470;50.034;15.256;2023-04-07T11:20:43;99460.28;;;9.23;61.73
70103;BME280;57470;50.034;15.256;2023-04-07T11:23:09;99463.97;;;9.75;62.92
70103;BME280;57470;50.034;15.256;2023-04-07T11:25:36;99459.16;;;8.26;65.81
70103;BME280;57470;50.034;15.256;2023-04-07T11:28:04;99452.81;;;9.15;63.85
70103;BME280;57470;50.034;15.256;2023-04-07T11:30:30;99449.25;;;9.02;63.33
70103;BME280;57470;50.034;15.256;2023-04-07T11:32:56;99453.97;;;8.69;64.27
70103;BME280;57470;50.034;15.256;2023-04-07T11:35:22;99449.53;;;8.83;63.64
70103;BME280;57470;50.034;15.256;2023-04-07T11:37:48;99448.88;;;9.49;62.69
70103;BME280;57470;50.034;15.256;2023-04-07T11:40:30;99443.47;;;9.10;63.88
70103;BME280;57470;50.034;15.256;2023-04-07T11:42:57;99454.34;;;9.19;62.92
70103;BME280;57470;50.034;15.256;2023-04-07T11:45:22;99453.63;;;9.44;63.17
70103;BME280;57470;50.034;15.256;2023-04-07T11:47:48;99457.56;;;8.96;63.72
70103;BME280;57470;50.034;15.256;2023-04-07T11:50:15;99452.63;;;9.04;64.34
70103;BME280;57470;50.034;15.256;2023-04-07T11:52:45;99464.88;;;8.64;64.86
70103;BME280;57470;50.034;15.256;2023-04-07T11:55:21;99460.72;;;9.02;65.22
70103;BME280;57470;50.034;15.256;2023-04-07T11:57:49;99458.81;;;8.90;64.46
70103;BME280;57470;50.034;15.256;2023-04-07T12:00:18;99460.22;;;9.65;64.71
70103;BME280;57470;50.034;15.256;2023-04-07T12:02:45;99457.19;;;9.16;65.17
70103;BME280;57470;50.034;15.256;2023-04-07T12:05:10;99458.22;;;9.28;64.65
70103;BME280;57470;50.034;15.256;2023-04-07T12:07:36;99462.09;;;9.22;65.91
70103;BME280;57470;50.034;15.256;2023-04-07T12:10:22;99457.31;;;9.41;67.07
70103;BME280;57470;50.034;15.256;2023-04-07T12:12:49;99455.59;;;9.82;66.68
70103;BME280;57470;50.034;15.256;2023-04-07T12:15:15;99460.00;;;9.68;65.76
70103;BME280;57470;50.034;15.256;2023-04-07T12:17:45;99459.41;;;9.77;68.57
70103;BME280;57470;50.034;15.256;2023-04-07T12:20:12;99461.84;;;10.07;65.30
70103;BME280;57470;50.034;15.256;2023-04-07T12:22:37;99465.28;;;9.83;65.86
70103;BME280;57470;50.034;15.256;2023-04-07T12:25:03;99461.72;;;9.69;66.28
70103;BME280;57470;50.034;15.256;2023-04-07T12:27:28;99458.66;;;9.75;66.62
70103;BME280;57470;50.034;15.256;2023-04-07T12:29:53;99469.72;;;9.55;67.51
70103;BME280;57470;50.034;15.256;2023-04-07T12:32:19;99460.06;;;9.81;67.24
70103;BME280;57470;50.034;15.256;2023-04-07T12:34:44;99463.88;;;9.36;68.01
70103;BME280;57470;50.034;15.256;2023-04-07T12:37:10;99463.31;;;9.45;69.33
70103;BME280;57470;50.034;15.256;2023-04-07T12:39:35;99467.16;;;9.54;68.39
70103;BME280;57470;50.034;15.256;2023-04-07T12:42:00;99464.31;;;9.57;69.12
70103;BME280;57470;50.034;15.256;2023-04-07T12:44:26;99468.47;;;10.14;68.84
70103;BME280;57470;50.034;15.256;2023-04-07T12:46:51;99472.91;;;10.14;68.14
70103;BME280;57470;50.034;15.256;2023-04-07T12:49:17;99464.06;;;10.40;66.64
70103;BME280;57470;50.034;15.256;2023-04-07T12:51:42;99458.22;;;10.35;68.23
70103;BME280;57470;50.034;15.256;2023-04-07T12:54:08;99461.75;;;10.48;65.91
70103;BME280;57470;50.034;15.256;2023-04-07T12:56:33;99455.28;;;10.52;67.77
70103;BME280;57470;50.034;15.256;2023-04-07T12:58:59;99456.84;;;10.42;66.58
70103;BME280;57470;50.034;15.256;2023-04-07T13:01:24;99457.50;;;10.71;67.00
70103;BME280;57470;50.034;15.256;2023-04-07T13:03:50;99456.25;;;10.64;67.39
70103;BME280;57470;50.034;15.256;2023-04-07T13:06:15;99453.78;;;10.61;65.76
70103;BME280;57470;50.034;15.256;2023-04-07T13:08:41;99449.38;;;9.95;67.23
70103;BME280;57470;50.034;15.256;2023-04-07T13:11:07;99447.78;;;9.93;67.24
70103;BME280;57470;50.034;15.256;2023-04-07T13:13:32;99454.31;;;10.14;69.16
70103;BME280;57470;50.034;15.256;2023-04-07T13:15:58;99440.69;;;10.06;66.94
70103;BME280;57470;50.034;15.256;2023-04-07T13:18:24;99448.50;;;9.82;69.11